sensor_id;sensor_type;location;lat;lon;timestamp;temperature;humidity
2893;DHT22;1456;51.840;12.184;2023-04-15T00:00:18;7.00;99.90
2893;DHT22;1456;51.840;12.184;2023-04-15T00:02:47;7.00;99.90
2893;DHT22;1456;51.840;12.184;2023-04-15T00:05:15;7.00;99.90
2893;DHT22;1456;51.840;12.184;2023-04-15T00:07:40;6.90;99.90
2893;DHT22;1456;51.840;12.184;2023-04-15T00:10:06;6.90;99.90
2893;DHT22;1456;51.840;12.184;2023-04-15T00:12:32;7.00;99.90
2893;DHT22;1456;51.840;12.184;2023-04-15T00:14:58;6.90;99.90
2893;DHT22;1456;51.840;12.184;2023-04-15T00:17:24;6.90;99.90
2893;DHT22;1456;51.840;12.184;2023-04-15T00:19:51;6.90;99.90
2893;DHT22;1456;51.840;12.184;2023-04-15T00:22:16;6.90;99.90
2893;DHT22;1456;51.840;12.184;2023-04-15T00:24:42;6.90;99.90
2893;DHT22;1456;51.840;12.184;2023-04-15T00:27:15;6.90;99.90
2893;DHT22;1456;51.840;12.184;2023-04-15T00:29:43;6.80;99.90
2893;DHT22;1456;51.840;12.184;2023-04-15T00:32:10;6.80;99.90
2893;DHT22;1456;51.840;12.184;2023-04-15T00:34:39;6.90;99.90
2893;DHT22;1456;51.840;12.184;2023-04-15T00:37:05;6.90;99.90
2893;DHT22;1456;51.840;12.184;2023-04-15T00:39:33;6.90;99.90
2893;DHT22;1456;51.840;12.184;2023-04-15T00:41:59;6.80;99.90
2893;DHT22;1456;51.840;12.184;2023-04-15T00:44:25;6.80;99.90
2893;DHT22;1456;51.840;12.184;2023-04-15T00:46:52;6.80;99.90
2893;DHT22;1456;51.840;12.184;2023-04-15T00:49:18;6.80;99.90
2893;DHT22;1456;51.840;12.184;2023-04-15T00:51:44;6.80;99.90
2893;DHT22;1456;51.840;12.184;2023-04-15T00:54:10;6.70;99.90
2893;DHT22;1456;51.840;12.184;2023-04-15T00:56:38;6.70;99.90
2893;DHT22;1456;51.840;12.184;2023-04-15T00:59:05;6.70;99.90
2893;DHT22;1456;51.840;12.184;2023-04-15T01:01:36;6.70;99.90
2893;DHT22;1456;51.840;12.184;2023-04-15T01:04:04;6.70;99.90
2893;DHT22;1456;51.840;12.184;2023-04-15T01:06:31;6.70;99.90
2893;DHT22;1456;51.840;12.184;2023-04-15T01:09:02;6.70;99.90
2893;DHT22;1456;51.840;12.184;2023-04-15T01:11:31;6.70;99.90
2893;DHT22;1456;51.840;12.184;2023-04-15T01:14:00;6.70;99.90
2893;DHT22;1456;51.840;12.184;2023-04-15T01:16:26;6.70;99.90
2893;DHT22;1456;51.840;12.184;2023-04-15T01:18:53;6.70;99.90
2893;DHT22;1456;51.840;12.184;2023-04-15T01:21:20;6.70;99.90
2893;DHT22;1456;51.840;12.184;2023-04-15T01:23:49;6.70;99.90
2893;DHT22;1456;51.840;12.184;2023-04-15T01:26:15;6.70;99.90
2893;DHT22;1456;51.840;12.184;2023-04-15T01:28:55;6.70;99.90
2893;DHT22;1456;51.840;12.184;2023-04-15T01:31:20;6.80;99.90
2893;DHT22;1456;51.840;12.184;2023-04-15T01:33:47;6.80;99.90
2893;DHT22;1456;51.840;12.184;2023-04-15T01:36:13;6.80;99.90
2893;DHT22;1456;51.840;12.184;2023-04-15T01:38:39;6.80;99.90
2893;DHT22;1456;51.840;12.184;2023-04-15T01:41:05;6.80;99.90
2893;DHT22;1456;51.840;12.184;2023-04-15T01:43:36;6.80;99.90
2893;DHT22;1456;51.840;12.184;2023-04-15T01:46:02;6.70;99.90
2893;DHT22;1456;51.840;12.184;2023-04-15T01:48:31;6.70;99.90
2893;DHT22;1456;51.840;12.184;2023-04-15T01:50:57;6.70;99.90
2893;DHT22;1456;51.840;12.184;2023-04-15T01:53:26;6.70;99.90
2893;DHT22;1456;51.840;12.184;2023-04-15T01:55:52;6.70;99.90
2893;DHT22;1456;51.840;12.184;2023-04-15T01:58:18;6.70;99.90
2893;DHT22;1456;51.840;12.184;2023-04-15T02:00:48;6.70;99.90
2893;DHT22;1456;51.840;12.184;2023-04-15T02:03:15;6.80;99.90
2893;DHT22;1456;51.840;12.184;2023-04-15T02:05:42;6.70;99.90
2893;DHT22;1456;51.840;12.184;2023-04-15T02:08:09;6.70;99.90
2893;DHT22;1456;51.840;12.184;2023-04-15T02:10:34;6.70;99.90
2893;DHT22;1456;51.840;12.184;2023-04-15T02:13:02;6.70;99.90
2893;DHT22;1456;51.840;12.184;2023-04-15T02:15:29;6.70;99.90
2893;DHT22;1456;51.840;12.184;2023-04-15T02:17:55;6.80;99.90
2893;DHT22;1456;51.840;12.184;2023-04-15T02:20:24;6.80;99.90
2893;DHT22;1456;51.840;12.184;2023-04-15T02:22:51;6.80;99.90
2893;DHT22;1456;51.840;12.184;2023-04-15T02:25:18;6.80;99.90
2893;DHT22;1456;51.840;12.184;2023-04-15T02:27:45;6.80;99.90
2893;DHT22;1456;51.840;12.184;2023-04-15T02:30:12;6.80;99.90
2893;DHT22;1456;51.840;12.184;2023-04-15T02:32:40;6.80;99.90
2893;DHT22;1456;51.840;12.184;2023-04-15T02:35:09;6.80;99.90
2893;DHT22;1456;51.840;12.184;2023-04-15T02:37:36;6.90;99.90
2893;DHT22;1456;51.840;12.184;2023-04-15T02:40:08;6.90;99.90
2893;DHT22;1456;51.840;12.184;2023-04-15T02:42:36;6.90;99.90
2893;DHT22;1456;51.840;12.184;2023-04-15T02:45:02;6.90;99.90
2893;DHT22;1456;51.840;12.184;2023-04-15T02:47:28;7.00;99.90
2893;DHT22;1456;51.840;12.184;2023-04-15T02:49:54;6.90;99.90
2893;DHT22;1456;51.840;12.184;2023-04-15T02:52:19;6.90;99.90
2893;DHT22;1456;51.840;12.184;2023-04-15T02:54:47;6.90;99.90
2893;DHT22;1456;51.840;12.184;2023-04-15T02:57:13;6.80;99.90
2893;DHT22;1456;51.840;12.184;2023-04-15T02:59:38;6.80;99.90
2893;DHT22;1456;51.840;12.184;2023-04-15T03:02:04;6.80;99.90
2893;DHT22;1456;51.840;12.184;2023-04-15T03:04:32;6.90;99.90
2893;DHT22;1456;51.840;12.184;2023-04-15T03:06:57;6.80;99.90
2893;DHT22;1456;51.840;12.184;2023-04-15T03:09:23;6.80;99.90
2893;DHT22;1456;51.840;12.184;2023-04-15T03:11:51;6.90;99.90
2893;DHT22;1456;51.840;12.184;2023-04-15T03:14:19;6.80;99.90
2893;DHT22;1456;51.840;12.184;2023-04-15T03:16:44;6.90;99.90
2893;DHT22;1456;51.840;12.184;2023-04-15T03:19:10;6.90;99.90
2893;DHT22;1456;51.840;12.184;2023-04-15T03:21:39;6.90;99.90
2893;DHT22;1456;51.840;12.184;2023-04-15T03:24:05;6.90;99.90
2893;DHT22;1456;51.840;12.184;2023-04-15T03:26:34;6.90;99.90
2893;DHT22;1456;51.840;12.184;2023-04-15T03:29:00;6.90;99.90
2893;DHT22;1456;51.840;12.184;2023-04-15T03:31:26;6.90;99.90
2893;DHT22;1456;51.840;12.184;2023-04-15T03:33:51;6.90;99.90
2893;DHT22;1456;51.840;12.184;2023-04-15T03:36:17;6.90;99.90
2893;DHT22;1456;51.840;12.184;2023-04-15T03:38:48;6.90;99.90
2893;DHT22;1456;51.840;12.184;2023-04-15T03:41:14;6.90;99.90
2893;DHT22;1456;51.840;12.184;2023-04-15T03:43:41;6.90;99.90
2893;DHT22;1456;51.840;12.184;2023-04-15T03:46:06;6.90;99.90
2893;DHT22;1456;51.840;12.184;2023-04-15T03:48:33;6.90;99.90
2893;DHT22;1456;51.840;12.184;2023-04-15T03:50:59;7.00;99.90
2893;DHT22;1456;51.840;12.184;2023-04-15T03:53:26;7.00;99.90
2893;DHT22;1456;51.840;12.184;2023-04-15T03:55:55;7.00;99.90
2893;DHT22;1456;51.840;12.184;2023-04-15T03:58:21;7.00;99.90
2893;DHT22;1456;51.840;12.184;2023-04-15T04:00:48;7.00;99.90
2893;DHT22;1456;51.840;12.184;2023-04-15T04:03:19;7.00;99.90
2893;DHT22;1456;51.840;12.184;2023-04-15T04:05:45;7.00;99.90
2893;DHT22;1456;51.840;12.184;2023-04-15T04:08:13;7.10;99.90
2893;DHT22;1456;51.840;12.184;2023-04-15T04:10:41;7.10;99.90
2893;DHT22;1456;51.840;12.184;2023-04-15T04:13:06;7.10;99.90
2893;DHT22;1456;51.840;12.184;2023-04-15T04:15:32;7.10;99.90
2893;DHT22;1456;51.840;12.184;2023-04-15T04:18:01;7.10;99.90
2893;DHT22;1456;51.840;12.184;2023-04-15T04:20:28;7.20;99.90
2893;DHT22;1456;51.840;12.184;2023-04-15T04:22:57;7.20;99.90
2893;DHT22;1456;51.840;12.184;2023-04-15T04:25:24;7.20;99.90
2893;DHT22;1456;51.840;12.184;2023-04-15T04:27:50;7.30;99.90
2893;DHT22;1456;51.840;12.184;2023-04-15T04:30:17;7.30;99.90
2893;DHT22;1456;51.840;12.184;2023-04-15T04:32:43;7.30;99.90
2893;DHT22;1456;51.840;12.184;2023-04-15T04:35:09;7.40;99.90
2893;DHT22;1456;51.840;12.184;2023-04-15T04:37:35;7.40;99.90
2893;DHT22;1456;51.840;12.184;2023-04-15T04:40:03;7.40;99.90
2893;DHT22;1456;51.840;12.184;2023-04-15T04:42:30;7.40;99.90
2893;DHT22;1456;51.840;12.184;2023-04-15T04:44:56;7.40;99.90
2893;DHT22;1456;51.840;12.184;2023-04-15T04:47:22;7.40;99.90
2893;DHT22;1456;51.840;12.184;2023-04-15T04:49:49;7.40;99.90
2893;DHT22;1456;51.840;12.184;2023-04-15T04:52:16;7.40;99.90
2893;DHT22;1456;51.840;12.184;2023-04-15T04:54:42;7.40;99.90
2893;DHT22;1456;51.840;12.184;2023-04-15T04:57:08;7.40;99.90
2893;DHT22;1456;51.840;12.184;2023-04-15T04:59:34;7.50;99.90
2893;DHT22;1456;51.840;12.184;2023-04-15T05:02:04;7.50;99.90
2893;DHT22;1456;51.840;12.184;2023-04-15T05:04:32;7.50;99.90
2893;DHT22;1456;51.840;12.184;2023-04-15T05:06:58;7.60;99.90
2893;DHT22;1456;51.840;12.184;2023-04-15T05:09:25;7.60;99.90
2893;DHT22;1456;51.840;12.184;2023-04-15T05:11:51;7.50;99.90
2893;DHT22;1456;51.840;12.184;2023-04-15T05:14:21;7.50;99.90
2893;DHT22;1456;51.840;12.184;2023-04-15T05:16:48;7.60;99.90
2893;DHT22;1456;51.840;12.184;2023-04-15T05:19:14;7.60;99.90
2893;DHT22;1456;51.840;12.184;2023-04-15T05:21:40;7.70;99.90
2893;DHT22;1456;51.840;12.184;2023-04-15T05:24:06;7.70;99.90
2893;DHT22;1456;51.840;12.184;2023-04-15T05:26:33;7.70;99.90
2893;DHT22;1456;51.840;12.184;2023-04-15T05:28:59;7.70;99.90
2893;DHT22;1456;51.840;12.184;2023-04-15T05:31:25;7.70;99.90
2893;DHT22;1456;51.840;12.184;2023-04-15T05:33:53;7.70;99.90
2893;DHT22;1456;51.840;12.184;2023-04-15T05:36:18;7.80;99.90
2893;DHT22;1456;51.840;12.184;2023-04-15T05:38:46;7.80;99.90
2893;DHT22;1456;51.840;12.184;2023-04-15T05:41:12;7.80;99.90
2893;DHT22;1456;51.840;12.184;2023-04-15T05:43:41;7.80;99.90
2893;DHT22;1456;51.840;12.184;2023-04-15T05:46:07;7.80;99.90
2893;DHT22;1456;51.840;12.184;2023-04-15T05:48:33;7.80;99.90
2893;DHT22;1456;51.840;12.184;2023-04-15T05:51:02;7.80;99.90
2893;DHT22;1456;51.840;12.184;2023-04-15T05:53:32;7.80;99.90
2893;DHT22;1456;51.840;12.184;2023-04-15T05:55:58;7.80;99.90
2893;DHT22;1456;51.840;12.184;2023-04-15T05:58:23;7.90;99.90
2893;DHT22;1456;51.840;12.184;2023-04-15T06:00:49;7.90;99.90
2893;DHT22;1456;51.840;12.184;2023-04-15T06:03:15;7.90;99.90
2893;DHT22;1456;51.840;12.184;2023-04-15T06:05:41;8.00;99.90
2893;DHT22;1456;51.840;12.184;2023-04-15T06:08:06;8.00;99.90
2893;DHT22;1456;51.840;12.184;2023-04-15T06:10:35;8.10;99.90
2893;DHT22;1456;51.840;12.184;2023-04-15T06:13:02;8.10;99.90
2893;DHT22;1456;51.840;12.184;2023-04-15T06:15:35;8.10;99.90
2893;DHT22;1456;51.840;12.184;2023-04-15T06:18:01;8.10;99.90
2893;DHT22;1456;51.840;12.184;2023-04-15T06:20:27;8.20;99.90
2893;DHT22;1456;51.840;12.184;2023-04-15T06:22:56;8.20;99.90
2893;DHT22;1456;51.840;12.184;2023-04-15T06:25:23;8.20;99.90
2893;DHT22;1456;51.840;12.184;2023-04-15T06:27:48;8.20;99.90
2893;DHT22;1456;51.840;12.184;2023-04-15T06:30:22;8.30;99.90
2893;DHT22;1456;51.840;12.184;2023-04-15T06:32:49;8.40;99.90
2893;DHT22;1456;51.840;12.184;2023-04-15T06:35:15;8.40;99.90
2893;DHT22;1456;51.840;12.184;2023-04-15T06:37:41;8.50;99.90
2893;DHT22;1456;51.840;12.184;2023-04-15T06:40:07;8.50;99.90
2893;DHT22;1456;51.840;12.184;2023-04-15T06:42:34;8.50;99.90
2893;DHT22;1456;51.840;12.184;2023-04-15T06:45:01;8.50;99.90
2893;DHT22;1456;51.840;12.184;2023-04-15T06:47:27;8.60;99.90
2893;DHT22;1456;51.840;12.184;2023-04-15T06:49:58;8.60;99.90
2893;DHT22;1456;51.840;12.184;2023-04-15T06:52:24;8.60;99.90
2893;DHT22;1456;51.840;12.184;2023-04-15T06:54:49;8.60;99.90
2893;DHT22;1456;51.840;12.184;2023-04-15T06:57:17;8.70;99.90
2893;DHT22;1456;51.840;12.184;2023-04-15T06:59:44;8.70;99.90
2893;DHT22;1456;51.840;12.184;2023-04-15T07:02:11;8.60;99.90
2893;DHT22;1456;51.840;12.184;2023-04-15T07:04:39;8.60;99.90
2893;DHT22;1456;51.840;12.184;2023-04-15T07:07:06;8.70;99.90
2893;DHT22;1456;51.840;12.184;2023-04-15T07:09:32;8.70;99.90
2893;DHT22;1456;51.840;12.184;2023-04-15T07:11:58;8.70;99.90
2893;DHT22;1456;51.840;12.184;2023-04-15T07:14:24;8.70;99.90
2893;DHT22;1456;51.840;12.184;2023-04-15T07:16:50;8.70;99.90
2893;DHT22;1456;51.840;12.184;2023-04-15T07:19:16;8.90;99.90
2893;DHT22;1456;51.840;12.184;2023-04-15T07:21:42;8.90;99.90
2893;DHT22;1456;51.840;12.184;2023-04-15T07:24:08;9.00;99.90
2893;DHT22;1456;51.840;12.184;2023-04-15T07:26:34;9.10;99.90
2893;DHT22;1456;51.840;12.184;2023-04-15T07:29:00;9.20;99.90
2893;DHT22;1456;51.840;12.184;2023-04-15T07:31:26;9.20;99.90
2893;DHT22;1456;51.840;12.184;2023-04-15T07:33:52;9.20;99.90
2893;DHT22;1456;51.840;12.184;2023-04-15T07:36:18;9.20;99.90
2893;DHT22;1456;51.840;12.184;2023-04-15T07:38:44;9.20;99.90
2893;DHT22;1456;51.840;12.184;2023-04-15T07:41:11;9.30;99.90
2893;DHT22;1456;51.840;12.184;2023-04-15T07:43:37;9.30;99.90
2893;DHT22;1456;51.840;12.184;2023-04-15T07:46:04;9.30;99.90
2893;DHT22;1456;51.840;12.184;2023-04-15T07:48:31;9.40;99.90
2893;DHT22;1456;51.840;12.184;2023-04-15T07:50:56;9.40;99.90
2893;DHT22;1456;51.840;12.184;2023-04-15T07:53:22;9.50;99.90
2893;DHT22;1456;51.840;12.184;2023-04-15T07:55:48;9.50;99.90
2893;DHT22;1456;51.840;12.184;2023-04-15T07:58:13;9.60;99.90
2893;DHT22;1456;51.840;12.184;2023-04-15T08:00:39;9.60;99.90
2893;DHT22;1456;51.840;12.184;2023-04-15T08:03:06;9.70;99.90
2893;DHT22;1456;51.840;12.184;2023-04-15T08:05:34;9.80;99.90
2893;DHT22;1456;51.840;12.184;2023-04-15T08:08:00;9.80;99.90
2893;DHT22;1456;51.840;12.184;2023-04-15T08:10:28;10.00;99.90
2893;DHT22;1456;51.840;12.184;2023-04-15T08:12:55;10.20;99.90
2893;DHT22;1456;51.840;12.184;2023-04-15T08:15:20;10.20;99.90
2893;DHT22;1456;51.840;12.184;2023-04-15T08:17:46;10.30;99.90
2893;DHT22;1456;51.840;12.184;2023-04-15T08:20:12;10.30;99.90
2893;DHT22;1456;51.840;12.184;2023-04-15T08:22:38;10.30;99.90
2893;DHT22;1456;51.840;12.184;2023-04-15T08:25:05;10.30;99.90
2893;DHT22;1456;51.840;12.184;2023-04-15T08:27:31;10.40;99.90
2893;DHT22;1456;51.840;12.184;2023-04-15T08:29:56;10.50;99.90
2893;DHT22;1456;51.840;12.184;2023-04-15T08:32:22;10.50;99.90
2893;DHT22;1456;51.840;12.184;2023-04-15T08:34:53;10.50;99.90
2893;DHT22;1456;51.840;12.184;2023-04-15T08:37:19;10.60;99.90
2893;DHT22;1456;51.840;12.184;2023-04-15T08:39:45;10.70;99.90
2893;DHT22;1456;51.840;12.184;2023-04-15T08:42:15;10.90;99.90
2893;DHT22;1456;51.840;12.184;2023-04-15T08:44:43;11.00;99.90
2893;DHT22;1456;51.840;12.184;2023-04-15T08:47:13;11.10;99.90
2893;DHT22;1456;51.840;12.184;2023-04-15T08:49:44;11.20;99.90
2893;DHT22;1456;51.840;12.184;2023-04-15T08:52:11;11.20;99.90
2893;DHT22;1456;51.840;12.184;2023-04-15T08:54:38;11.30;99.90
2893;DHT22;1456;51.840;12.184;2023-04-15T08:57:09;11.40;99.90
2893;DHT22;1456;51.840;12.184;2023-04-15T08:59:41;11.50;99.90
2893;DHT22;1456;51.840;12.184;2023-04-15T09:02:09;11.40;99.90
2893;DHT22;1456;51.840;12.184;2023-04-15T09:04:37;11.50;99.90
2893;DHT22;1456;51.840;12.184;2023-04-15T09:07:03;11.40;99.90
2893;DHT22;1456;51.840;12.184;2023-04-15T09:09:29;11.40;99.90
2893;DHT22;1456;51.840;12.184;2023-04-15T09:11:56;11.40;99.90
2893;DHT22;1456;51.840;12.184;2023-04-15T09:14:23;11.50;99.90
2893;DHT22;1456;51.840;12.184;2023-04-15T09:17:09;11.40;99.90
2893;DHT22;1456;51.840;12.184;2023-04-15T09:19:36;11.40;99.90
2893;DHT22;1456;51.840;12.184;2023-04-15T09:22:09;11.40;99.90
2893;DHT22;1456;51.840;12.184;2023-04-15T09:24:37;11.40;99.90
2893;DHT22;1456;51.840;12.184;2023-04-15T09:27:05;11.30;99.90
2893;DHT22;1456;51.840;12.184;2023-04-15T09:29:33;11.20;99.90
2893;DHT22;1456;51.840;12.184;2023-04-15T09:32:12;11.20;99.90
2893;DHT22;1456;51.840;12.184;2023-04-15T09:34:38;11.20;99.90
2893;DHT22;1456;51.840;12.184;2023-04-15T09:37:04;11.30;99.90
2893;DHT22;1456;51.840;12.184;2023-04-15T09:39:51;11.30;99.90
2893;DHT22;1456;51.840;12.184;2023-04-15T09:42:18;11.30;99.90
2893;DHT22;1456;51.840;12.184;2023-04-15T09:44:55;11.40;99.90
2893;DHT22;1456;51.840;12.184;2023-04-15T09:47:30;11.50;99.90
2893;DHT22;1456;51.840;12.184;2023-04-15T09:50:00;11.50;99.90
2893;DHT22;1456;51.840;12.184;2023-04-15T09:52:27;11.50;99.90
2893;DHT22;1456;51.840;12.184;2023-04-15T09:54:55;11.60;99.90
2893;DHT22;1456;51.840;12.184;2023-04-15T09:57:21;11.50;99.90
2893;DHT22;1456;51.840;12.184;2023-04-15T09:59:50;11.50;99.90
2893;DHT22;1456;51.840;12.184;2023-04-15T10:02:18;11.50;99.90
2893;DHT22;1456;51.840;12.184;2023-04-15T10:04:49;11.60;99.90
2893;DHT22;1456;51.840;12.184;2023-04-15T10:07:22;11.60;99.90
2893;DHT22;1456;51.840;12.184;2023-04-15T10:09:48;11.60;99.90
2893;DHT22;1456;51.840;12.184;2023-04-15T10:12:18;11.60;99.90
2893;DHT22;1456;51.840;12.184;2023-04-15T10:14:47;11.80;99.90
2893;DHT22;1456;51.840;12.184;2023-04-15T10:17:21;11.70;99.90
2893;DHT22;1456;51.840;12.184;2023-04-15T10:19:53;11.70;99.90
2893;DHT22;1456;51.840;12.184;2023-04-15T10:22:22;11.70;99.90
2893;DHT22;1456;51.840;12.184;2023-04-15T10:24:51;11.60;99.90
2893;DHT22;1456;51.840;12.184;2023-04-15T10:27:18;11.60;99.90
2893;DHT22;1456;51.840;12.184;2023-04-15T10:29:44;11.60;99.90
2893;DHT22;1456;51.840;12.184;2023-04-15T10:32:14;11.60;99.90
2893;DHT22;1456;51.840;12.184;2023-04-15T10:34:40;11.60;99.90
2893;DHT22;1456;51.840;12.184;2023-04-15T10:37:09;11.60;99.90
2893;DHT22;1456;51.840;12.184;2023-04-15T10:42:18;11.30;99.90
2893;DHT22;1456;51.840;12.184;2023-04-15T10:44:48;11.20;99.90
2893;DHT22;1456;51.840;12.184;2023-04-15T10:47:18;11.20;99.90
2893;DHT22;1456;51.840;12.184;2023-04-15T10:49:58;11.10;99.90
2893;DHT22;1456;51.840;12.184;2023-04-15T10:52:27;11.10;99.90
2893;DHT22;1456;51.840;12.184;2023-04-15T10:55:13;11.10;99.90
2893;DHT22;1456;51.840;12.184;2023-04-15T10:57:44;11.10;99.90
2893;DHT22;1456;51.840;12.184;2023-04-15T11:00:14;11.10;99.90
2893;DHT22;1456;51.840;12.184;2023-04-15T11:05:23;11.20;99.90
2893;DHT22;1456;51.840;12.184;2023-04-15T11:08:11;11.30;99.90
2893;DHT22;1456;51.840;12.184;2023-04-15T11:15:35;11.50;99.90
2893;DHT22;1456;51.840;12.184;2023-04-15T11:18:28;11.50;99.90
2893;DHT22;1456;51.840;12.184;2023-04-15T11:20:58;11.50;99.90
2893;DHT22;1456;51.840;12.184;2023-04-15T11:23:34;11.60;99.90
2893;DHT22;1456;51.840;12.184;2023-04-15T11:26:01;11.60;99.90
2893;DHT22;1456;51.840;12.184;2023-04-15T11:28:33;11.60;99.90
2893;DHT22;1456;51.840;12.184;2023-04-15T11:31:05;11.60;99.90
2893;DHT22;1456;51.840;12.184;2023-04-15T11:33:31;11.60;99.90
2893;DHT22;1456;51.840;12.184;2023-04-15T11:35:58;11.60;99.90
2893;DHT22;1456;51.840;12.184;2023-04-15T11:38:24;11.60;99.90
2893;DHT22;1456;51.840;12.184;2023-04-15T11:40:51;11.60;99.90
2893;DHT22;1456;51.840;12.184;2023-04-15T11:43:18;11.50;99.90
2893;DHT22;1456;51.840;12.184;2023-04-15T11:45:56;11.50;99.90
2893;DHT22;1456;51.840;12.184;2023-04-15T11:48:33;11.50;99.90
2893;DHT22;1456;51.840;12.184;2023-04-15T11:51:19;11.50;99.90
2893;DHT22;1456;51.840;12.184;2023-04-15T11:53:48;11.60;99.90
2893;DHT22;1456;51.840;12.184;2023-04-15T11:56:23;11.50;99.90
2893;DHT22;1456;51.840;12.184;2023-04-15T11:58:55;11.50;99.90
2893;DHT22;1456;51.840;12.184;2023-04-15T12:01:38;11.50;99.90
2893;DHT22;1456;51.840;12.184;2023-04-15T12:04:16;11.50;99.90
2893;DHT22;1456;51.840;12.184;2023-04-15T12:06:44;11.50;99.90
2893;DHT22;1456;51.840;12.184;2023-04-15T12:09:15;11.70;99.90
2893;DHT22;1456;51.840;12.184;2023-04-15T12:11:48;11.90;99.90
2893;DHT22;1456;51.840;12.184;2023-04-15T12:14:30;12.00;99.90
2893;DHT22;1456;51.840;12.184;2023-04-15T12:17:00;12.00;99.90
2893;DHT22;1456;51.840;12.184;2023-04-15T12:22:12;11.90;99.90
2893;DHT22;1456;51.840;12.184;2023-04-15T12:24:38;11.70;99.90
2893;DHT22;1456;51.840;12.184;2023-04-15T12:27:10;11.70;99.90
2893;DHT22;1456;51.840;12.184;2023-04-15T12:29:38;11.60;99.90
2893;DHT22;1456;51.840;12.184;2023-04-15T12:32:10;11.70;99.90
2893;DHT22;1456;51.840;12.184;2023-04-15T12:34:42;11.80;99.90
2893;DHT22;1456;51.840;12.184;2023-04-15T12:37:10;11.90;99.90
2893;DHT22;1456;51.840;12.184;2023-04-15T12:39:38;12.00;99.90
2893;DHT22;1456;51.840;12.184;2023-04-15T12:42:04;12.00;99.90
2893;DHT22;1456;51.840;12.184;2023-04-15T12:44:30;11.90;99.90
2893;DHT22;1456;51.840;12.184;2023-04-15T12:46:57;11.70;99.90
2893;DHT22;1456;51.840;12.184;2023-04-15T12:49:25;11.80;99.90
2893;DHT22;1456;51.840;12.184;2023-04-15T12:52:00;11.90;99.90
2893;DHT22;1456;51.840;12.184;2023-04-15T12:54:30;12.10;99.90
2893;DHT22;1456;51.840;12.184;2023-04-15T12:56:57;12.10;99.90
2893;DHT22;1456;51.840;12.184;2023-04-15T12:59:25;12.10;99.90
2893;DHT22;1456;51.840;12.184;2023-04-15T13:01:51;12.10;99.90
2893;DHT22;1456;51.840;12.184;2023-04-15T13:04:20;11.90;99.90
2893;DHT22;1456;51.840;12.184;2023-04-15T13:06:46;11.90;99.90
2893;DHT22;1456;51.840;12.184;2023-04-15T13:09:16;11.90;99.90
2893;DHT22;1456;51.840;12.184;2023-04-15T13:11:42;11.80;99.90
2893;DHT22;1456;51.840;12.184;2023-04-15T13:14:09;11.80;99.90
2893;DHT22;1456;51.840;12.184;2023-04-15T13:16:38;11.80;99.90
2893;DHT22;1456;51.840;12.184;2023-04-15T13:19:06;11.70;99.90
2893;DHT22;1456;51.840;12.184;2023-04-15T13:21:34;11.80;99.90
2893;DHT22;1456;51.840;12.184;2023-04-15T13:24:06;11.90;99.90
2893;DHT22;1456;51.840;12.184;2023-04-15T13:26:32;12.00;99.90
2893;DHT22;1456;51.840;12.184;2023-04-15T13:28:59;12.00;99.90
2893;DHT22;1456;51.840;12.184;2023-04-15T13:31:25;12.10;99.90
2893;DHT22;1456;51.840;12.184;2023-04-15T13:33:51;12.10;99.90
2893;DHT22;1456;51.840;12.184;2023-04-15T13:36:17;12.20;99.90
2893;DHT22;1456;51.840;12.184;2023-04-15T13:38:42;12.30;99.90
2893;DHT22;1456;51.840;12.184;2023-04-15T13:41:09;12.30;99.90
2893;DHT22;1456;51.840;12.184;2023-04-15T13:43:36;12.20;99.90
2893;DHT22;1456;51.840;12.184;2023-04-15T13:46:01;12.10;99.90
2893;DHT22;1456;51.840;12.184;2023-04-15T13:48:27;12.00;99.90
2893;DHT22;1456;51.840;12.184;2023-04-15T13:50:53;12.10;99.90
2893;DHT22;1456;51.840;12.184;2023-04-15T13:53:22;12.10;99.90
2893;DHT22;1456;51.840;12.184;2023-04-15T13:55:47;12.00;99.90
2893;DHT22;1456;51.840;12.184;2023-04-15T13:58:13;11.90;99.90
2893;DHT22;1456;51.840;12.184;2023-04-15T14:00:40;11.80;99.90
2893;DHT22;1456;51.840;12.184;2023-04-15T14:03:07;11.80;99.90
2893;DHT22;1456;51.840;12.184;2023-04-15T14:05:32;11.90;99.90
2893;DHT22;1456;51.840;12.184;2023-04-15T14:08:00;11.90;99.90
2893;DHT22;1456;51.840;12.184;2023-04-15T14:10:27;11.90;99.90
2893;DHT22;1456;51.840;12.184;2023-04-15T14:12:52;11.90;99.90
2893;DHT22;1456;51.840;12.184;2023-04-15T14:15:18;12.00;99.90
2893;DHT22;1456;51.840;12.184;2023-04-15T14:17:44;12.20;99.90
2893;DHT22;1456;51.840;12.184;2023-04-15T14:20:09;12.30;99.90
2893;DHT22;1456;51.840;12.184;2023-04-15T14:22:35;12.60;99.90
2893;DHT22;1456;51.840;12.184;2023-04-15T14:25:06;12.70;99.90
2893;DHT22;1456;51.840;12.184;2023-04-15T14:27:32;12.80;99.90
2893;DHT22;1456;51.840;12.184;2023-04-15T14:29:57;12.90;99.90
2893;DHT22;1456;51.840;12.184;2023-04-15T14:32:24;12.80;99.90
2893;DHT22;1456;51.840;12.184;2023-04-15T14:34:51;12.70;99.90
2893;DHT22;1456;51.840;12.184;2023-04-15T14:37:17;12.60;99.90
2893;DHT22;1456;51.840;12.184;2023-04-15T14:39:45;12.70;99.90
2893;DHT22;1456;51.840;12.184;2023-04-15T14:42:14;12.60;99.90
2893;DHT22;1456;51.840;12.184;2023-04-15T14:44:40;12.40;99.90
2893;DHT22;1456;51.840;12.184;2023-04-15T14:47:06;12.30;99.90
2893;DHT22;1456;51.840;12.184;2023-04-15T14:49:33;12.20;99.90
2893;DHT22;1456;51.840;12.184;2023-04-15T14:51:58;12.10;99.90
2893;DHT22;1456;51.840;12.184;2023-04-15T14:54:24;12.10;99.90
2893;DHT22;1456;51.840;12.184;2023-04-15T14:56:49;12.10;99.90
2893;DHT22;1456;51.840;12.184;2023-04-15T14:59:15;12.10;99.90
2893;DHT22;1456;51.840;12.184;2023-04-15T15:01:43;12.10;99.90
2893;DHT22;1456;51.840;12.184;2023-04-15T15:04:09;12.00;99.90
2893;DHT22;1456;51.840;12.184;2023-04-15T15:06:35;11.90;99.90
2893;DHT22;1456;51.840;12.184;2023-04-15T15:09:05;11.90;99.90
2893;DHT22;1456;51.840;12.184;2023-04-15T15:11:31;11.90;99.90
2893;DHT22;1456;51.840;12.184;2023-04-15T15:13:58;11.80;99.90
2893;DHT22;1456;51.840;12.184;2023-04-15T15:16:26;11.80;99.90
2893;DHT22;1456;51.840;12.184;2023-04-15T15:18:52;11.80;99.90
2893;DHT22;1456;51.840;12.184;2023-04-15T15:21:25;11.80;99.90
2893;DHT22;1456;51.840;12.184;2023-04-15T15:23:53;11.70;99.90
2893;DHT22;1456;51.840;12.184;2023-04-15T15:26:21;11.70;99.90
2893;DHT22;1456;51.840;12.184;2023-04-15T15:28:47;11.70;99.90
2893;DHT22;1456;51.840;12.184;2023-04-15T15:31:20;11.70;99.90
2893;DHT22;1456;51.840;12.184;2023-04-15T15:33:49;11.70;99.90
2893;DHT22;1456;51.840;12.184;2023-04-15T15:36:17;11.70;99.90
2893;DHT22;1456;51.840;12.184;2023-04-15T15:38:42;11.70;99.90
2893;DHT22;1456;51.840;12.184;2023-04-15T15:41:08;11.70;99.90
2893;DHT22;1456;51.840;12.184;2023-04-15T15:43:36;11.60;99.90
2893;DHT22;1456;51.840;12.184;2023-04-15T15:46:02;11.60;99.90
2893;DHT22;1456;51.840;12.184;2023-04-15T15:48:28;11.50;99.90
2893;DHT22;1456;51.840;12.184;2023-04-15T15:50:54;11.50;99.90
2893;DHT22;1456;51.840;12.184;2023-04-15T15:53:20;11.50;99.90
2893;DHT22;1456;51.840;12.184;2023-04-15T15:55:48;11.60;99.90
2893;DHT22;1456;51.840;12.184;2023-04-15T15:58:14;11.60;99.90
2893;DHT22;1456;51.840;12.184;2023-04-15T16:00:42;11.60;99.90
2893;DHT22;1456;51.840;12.184;2023-04-15T16:03:08;11.50;99.90
2893;DHT22;1456;51.840;12.184;2023-04-15T16:05:40;11.40;99.90
2893;DHT22;1456;51.840;12.184;2023-04-15T16:08:11;11.40;99.90
2893;DHT22;1456;51.840;12.184;2023-04-15T16:10:38;11.50;99.90